Pagrindinis puslapis
METAR-TAF:

METAR-TAF

Oro uostai :

Aniak, Aliaska, Jungtinės Amerikos Valstijos

platuma: 61-34-53N, ilguma: 159-32-34W, Aukštis: 27 m

Dabartinis oras

Ataskaita buvo paskelbta 38 minutes, ne 22:56 UTC
Vėjas 4 kt nuo kintamojo kryptimis
Temperatūra 11°C
Drėgmė 62%
Slėgis 1018 hPa
Matomumas: 14.5 km
Mažai debesys ne aukštis 2500 ft
Apsiniaukę ne aukštis 3300 ft

METAR: PANI 052256Z AUTO VRB04KT 9SM FEW025 OVC033 11/04 A3005 RMK AO2 SLP177 T01060044

Laikas: 15:34 (23:34 UTC)


TAF: trūkstamas

Orai ataskaitas ir orų prognozės (METAR, TAF).

turimą stotys yra geltonos ir raudonos taškus žemėlapyje.

Perkelti pele per norėdami pamatyti stoties vardą.

Tada spustelėkite, norėdami matyti oro stebėjimo ir prognozės.

Norėdami pakeisti žemėlapį: spustelėkite ant žalios mygtukų su juodo kryžiaus žemyn,; žalią mygtuką su brūkšneliu, jei norite nutolinti; arba žalių rodyklių gretimoms žemėlapius.


METAR-TAF: